Mayer, Minnesota
Current Conditions -  °F | °C
As of 9:54 PM on Friday 28 Nov 2014 (Local Time) from KGYL Reporting Station
Clear Clear  
Wind Chill: 14°   Ceiling: Unl
Heat Index: 22°   Visibility: 10mi
Dew Point: 20°   Wind: 7mph
Humidity: 91%   Direction: 90°E
Pressure: 29.7"   Gusts: NA
Location:  44.88°N, 93.89°W
Report Text: KGYL 290354Z AUTO 09006KT 10SM CLR M05/M06 A2970 RMK AO2 T10531065
Loading
Personal Weather Stations






























Interactive Weather Map New forecast layout! Learn more

10-Day Weather Forecast

Advertisements
Track Severe Weather on mobile